This is the latest recevied weather packets stored in our database for station/object IW1RCO-13. If no packets are shown the sender has not sent any weather packets the latest 10 day(s).
| Time | Temp. | Humidity | Pressure | Rain* | Wind** | Luminosity | Snow |
|---|---|---|---|---|---|---|---|
| 1788655467 | 22.78° C | 67% | 1020 hPa | - | - | - | - |
| 1788655170 | 22.78° C | 67% | 1019.6 hPa | - | - | - | - |
| 1788654874 | 22.78° C | 70% | 1019.4 hPa | - | - | - | - |
| 1788654570 | 22.78° C | 71% | 1019.2 hPa | - | - | - | - |
| 1788654273 | 22.22° C | 72% | 1019.6 hPa | - | - | - | - |
| 1788653970 | 22.22° C | 72% | 1019.6 hPa | - | - | - | - |
| 1788653673 | 21.67° C | 74% | 1019.8 hPa | - | - | - | - |
| 1788653369 | 21.67° C | 75% | 1019.8 hPa | - | - | - | - |
| 1788653073 | 21.67° C | 74% | 1019.9 hPa | - | - | - | - |
| 1788652769 | 21.11° C | 75% | 1019.6 hPa | - | - | - | - |
| 1788652472 | 20.56° C | 78% | 1019.8 hPa | - | - | - | - |
| 1788652169 | 20.56° C | 76% | 1019.7 hPa | - | - | - | - |
| 1788651872 | 20° C | 78% | 1019.7 hPa | - | - | - | - |
| 1788651569 | 20° C | 81% | 1018.9 hPa | - | - | - | - |
| 1788651272 | 20° C | 80% | 1019.6 hPa | - | - | - | - |
| 1788650968 | 20° C | 80% | 1020 hPa | - | - | - | - |
| 1788650672 | 19.44° C | 83% | 1019.7 hPa | - | - | - | - |
| 1788650368 | 20° C | 84% | 1019.8 hPa | - | - | - | - |
| 1788650071 | 20.56° C | 82% | 1020 hPa | - | - | - | - |
| 1788647967 | 20° C | 83% | 1020.3 hPa | - | - | - | - |
| 1788647670 | 20° C | 84% | 1020 hPa | - | - | - | - |
| 1788647367 | 20° C | 83% | 1020 hPa | - | - | - | - |
| 1788647070 | 20° C | 83% | 1019.9 hPa | - | - | - | - |
| 1788646773 | 20° C | 83% | 1020 hPa | - | - | - | - |
| 1788646470 | 20° C | 83% | 1020 hPa | - | - | - | - |
* Rain since midnight (hover to see other rain measurements)
** Current wind speed in m/s (hover to see current wind gust speed)